createdAt,value
2022-12-14T00:01:24.094Z,6.80
2022-12-14T00:03:51.169Z,5.83
2022-12-14T00:06:23.523Z,6.75
2022-12-14T00:08:52.509Z,6.40
2022-12-14T00:11:19.830Z,6.53
2022-12-14T00:13:48.979Z,5.78
2022-12-14T00:16:17.990Z,5.37
2022-12-14T00:18:48.702Z,5.38
2022-12-14T00:21:15.722Z,5.55
2022-12-14T00:23:43.906Z,6.07
2022-12-14T00:26:31.751Z,5.75
2022-12-14T00:28:59.447Z,5.30
2022-12-14T00:31:26.225Z,6.13
2022-12-14T00:33:53.032Z,6.75
2022-12-14T00:36:20.014Z,5.40
2022-12-14T00:38:46.583Z,6.07
2022-12-14T00:41:13.592Z,6.37
2022-12-14T00:43:40.648Z,6.13
2022-12-14T00:46:08.029Z,6.30
2022-12-14T00:48:34.599Z,5.45
2022-12-14T00:51:06.255Z,5.80
2022-12-14T00:53:32.743Z,6.37
2022-12-14T00:56:07.880Z,5.65
2022-12-14T00:58:34.745Z,5.55
2022-12-14T01:01:05.245Z,6.07
2022-12-14T01:03:32.916Z,6.47
2022-12-14T01:05:59.890Z,5.93
2022-12-14T01:08:35.060Z,5.82
2022-12-14T01:11:08.917Z,5.95
2022-12-14T01:13:36.698Z,6.85
2022-12-14T01:16:11.349Z,5.40
2022-12-14T01:19:07.130Z,5.40
2022-12-14T01:21:42.297Z,5.93
2022-12-14T01:24:09.625Z,5.47
2022-12-14T01:26:38.356Z,5.55
2022-12-14T01:29:05.381Z,5.78
2022-12-14T01:31:35.547Z,5.40
2022-12-14T01:34:02.273Z,6.20
2022-12-14T01:36:31.752Z,5.45
2022-12-14T01:39:04.218Z,5.63
2022-12-14T01:41:38.042Z,6.13
2022-12-14T01:44:07.517Z,6.33
2022-12-14T01:46:39.668Z,5.28
2022-12-14T01:49:20.552Z,5.07
2022-12-14T01:51:55.208Z,4.88
2022-12-14T01:54:22.256Z,5.82
2022-12-14T01:56:48.875Z,5.47
2022-12-14T01:59:22.463Z,4.35
2022-12-14T02:01:49.255Z,5.00
2022-12-14T02:04:17.819Z,5.63
2022-12-14T02:06:47.531Z,5.40
2022-12-14T02:09:20.140Z,4.97
2022-12-14T02:11:46.500Z,5.78
2022-12-14T02:14:12.999Z,4.55
2022-12-14T02:16:40.797Z,5.93
2022-12-14T02:19:07.407Z,4.63
2022-12-14T02:21:55.011Z,5.47
2022-12-14T02:24:39.920Z,5.13
2022-12-14T02:27:15.324Z,5.10
2022-12-14T02:30:08.031Z,4.13
2022-12-14T02:33:06.031Z,4.60
2022-12-14T02:36:20.605Z,5.57
2022-12-14T02:39:04.117Z,4.50
2022-12-14T02:41:49.928Z,5.43
2022-12-14T02:44:34.547Z,5.38
2022-12-14T02:47:15.339Z,4.53
2022-12-14T02:50:00.683Z,5.33
2022-12-14T02:52:40.947Z,5.10
2022-12-14T02:55:35.532Z,4.47
2022-12-14T02:58:06.976Z,5.40
2022-12-14T03:00:35.123Z,4.97
2022-12-14T03:03:03.300Z,5.33
2022-12-14T03:05:29.972Z,4.68
2022-12-14T03:08:00.506Z,4.85
2022-12-14T03:10:50.545Z,4.93
2022-12-14T03:13:27.229Z,5.05
2022-12-14T03:16:11.041Z,4.87
2022-12-14T03:19:03.385Z,4.63
2022-12-14T03:21:35.856Z,4.32
2022-12-14T03:24:10.446Z,5.68
2022-12-14T03:26:47.612Z,5.03
2022-12-14T03:29:34.038Z,5.07
2022-12-14T03:32:07.392Z,5.38
2022-12-14T03:34:47.952Z,5.72
2022-12-14T03:37:32.997Z,5.72
2022-12-14T03:39:59.455Z,5.38
2022-12-14T03:42:56.795Z,5.30
2022-12-14T03:46:18.651Z,5.43
2022-12-14T03:48:51.379Z,5.20
2022-12-14T03:51:56.727Z,5.40
2022-12-14T03:54:43.375Z,5.05
2022-12-14T03:57:27.090Z,7.00
2022-12-14T04:00:15.562Z,4.75
2022-12-14T04:03:15.076Z,4.63
2022-12-14T04:06:05.933Z,5.70
2022-12-14T04:09:00.696Z,5.00
2022-12-14T04:11:58.053Z,4.80
2022-12-14T04:14:50.023Z,4.88
2022-12-14T04:17:44.026Z,4.75
2022-12-14T04:20:22.040Z,5.60
2022-12-14T04:22:55.944Z,4.35
2022-12-14T04:25:55.559Z,4.80
2022-12-14T04:28:45.840Z,5.35
2022-12-14T04:31:18.576Z,5.18
2022-12-14T04:33:50.816Z,4.88
2022-12-14T04:36:25.347Z,5.20
2022-12-14T04:38:58.214Z,4.40
2022-12-14T04:41:29.233Z,4.80
2022-12-14T04:44:00.074Z,5.85
2022-12-14T04:46:36.318Z,5.05
2022-12-14T04:49:18.350Z,5.97
2022-12-14T04:52:04.970Z,5.17
2022-12-14T04:54:45.044Z,5.25
2022-12-14T04:57:21.030Z,4.97
2022-12-14T04:59:48.645Z,5.15
2022-12-14T05:02:52.556Z,5.05
2022-12-14T05:05:46.440Z,4.53
2022-12-14T05:08:24.846Z,4.93
2022-12-14T05:11:48.107Z,5.70
2022-12-14T05:14:02.853Z,5.28
2022-12-14T05:16:29.901Z,5.90
2022-12-14T05:18:56.412Z,6.83
2022-12-14T05:21:41.375Z,4.95
2022-12-14T05:24:08.122Z,4.75
2022-12-14T05:26:34.802Z,5.20
2022-12-14T05:29:01.299Z,5.30
2022-12-14T05:31:27.802Z,5.23
2022-12-14T05:33:54.308Z,5.43
2022-12-14T05:36:20.839Z,5.38
2022-12-14T05:38:47.303Z,5.65
2022-12-14T05:41:14.727Z,5.35
2022-12-14T05:43:41.479Z,4.43
2022-12-14T05:46:09.894Z,4.75
2022-12-14T05:48:36.532Z,5.13
2022-12-14T05:51:07.565Z,4.90
2022-12-14T05:53:35.834Z,5.28
2022-12-14T05:56:03.022Z,5.73
2022-12-14T05:58:29.704Z,5.35
2022-12-14T06:01:00.440Z,3.33
2022-12-14T06:03:27.326Z,5.07
2022-12-14T06:05:54.098Z,4.72
2022-12-14T06:08:21.543Z,4.20
2022-12-14T06:10:47.901Z,5.13
2022-12-14T06:13:14.339Z,5.32
2022-12-14T06:15:41.124Z,4.55
2022-12-14T06:18:07.668Z,4.65
2022-12-14T06:20:34.127Z,5.13
2022-12-14T06:23:00.581Z,4.40
2022-12-14T06:25:27.018Z,4.78
2022-12-14T06:27:55.822Z,7.03
2022-12-14T06:30:22.318Z,6.20
2022-12-14T06:32:48.939Z,5.60
2022-12-14T06:35:15.717Z,6.05
2022-12-14T06:37:42.352Z,5.80
2022-12-14T06:40:15.417Z,5.47
2022-12-14T06:42:41.845Z,5.30
2022-12-14T06:45:08.626Z,4.50
2022-12-14T06:47:36.031Z,4.82
2022-12-14T06:50:02.545Z,5.53
2022-12-14T06:52:29.027Z,4.40
2022-12-14T06:54:55.475Z,4.50
2022-12-14T06:57:21.915Z,5.33
2022-12-14T06:59:48.353Z,5.22
2022-12-14T07:02:37.828Z,5.50
2022-12-14T07:05:05.550Z,5.47
2022-12-14T07:07:34.626Z,5.35
2022-12-14T07:10:01.520Z,4.27
2022-12-14T07:12:29.011Z,4.32
2022-12-14T07:14:55.529Z,5.60
2022-12-14T07:17:22.279Z,4.25
2022-12-14T07:19:49.159Z,4.20
2022-12-14T07:22:16.886Z,5.00
2022-12-14T07:24:43.422Z,6.53
2022-12-14T07:27:10.046Z,4.50
2022-12-14T07:29:36.878Z,5.35
2022-12-14T07:32:03.630Z,4.88
2022-12-14T07:34:30.153Z,4.30
2022-12-14T07:36:56.616Z,4.82
2022-12-14T07:39:23.249Z,4.60
2022-12-14T07:41:50.639Z,5.75
2022-12-14T07:44:17.364Z,4.15
2022-12-14T07:46:43.875Z,4.90
2022-12-14T07:49:10.579Z,4.70
2022-12-14T07:51:39.451Z,5.05
2022-12-14T07:54:06.697Z,5.47
2022-12-14T07:56:36.178Z,4.38
2022-12-14T07:59:04.844Z,4.63
2022-12-14T08:01:36.620Z,5.40
2022-12-14T08:04:12.029Z,5.13
2022-12-14T08:06:39.826Z,5.15
2022-12-14T08:09:08.194Z,5.57
2022-12-14T08:11:34.875Z,4.43
2022-12-14T08:14:04.724Z,4.88
2022-12-14T08:16:32.754Z,4.38
2022-12-14T08:19:00.435Z,5.03
2022-12-14T08:21:28.496Z,5.28
2022-12-14T08:23:56.006Z,4.93
2022-12-14T08:26:25.580Z,4.57
2022-12-14T08:28:57.215Z,4.90
2022-12-14T08:31:25.862Z,4.90
2022-12-14T08:33:52.521Z,5.50
2022-12-14T08:36:28.806Z,5.73
2022-12-14T08:38:57.362Z,5.22
2022-12-14T08:41:25.390Z,5.60
2022-12-14T08:43:55.053Z,6.13
2022-12-14T08:46:23.000Z,6.03
2022-12-14T08:48:52.424Z,4.67
2022-12-14T08:51:19.633Z,4.97
2022-12-14T08:53:49.158Z,6.40
2022-12-14T08:56:18.469Z,7.57
2022-12-14T08:58:47.477Z,8.07
2022-12-14T09:01:25.747Z,7.00
2022-12-14T09:03:54.844Z,6.55
2022-12-14T09:06:27.871Z,5.20
2022-12-14T09:08:55.313Z,5.60
2022-12-14T09:11:22.205Z,6.05
2022-12-14T09:13:49.158Z,5.70
2022-12-14T09:16:19.257Z,5.13
2022-12-14T09:18:47.128Z,5.15
2022-12-14T09:21:14.358Z,5.88
2022-12-14T09:23:41.747Z,5.95
2022-12-14T09:26:15.155Z,5.50
2022-12-14T09:28:45.451Z,5.57
2022-12-14T09:31:14.543Z,5.57
2022-12-14T09:33:41.603Z,5.50
2022-12-14T09:36:34.250Z,5.63
2022-12-14T09:39:01.321Z,5.20
2022-12-14T09:41:35.588Z,4.28
2022-12-14T09:44:19.372Z,5.28
2022-12-14T09:47:08.133Z,5.97
2022-12-14T09:50:01.912Z,4.97
2022-12-14T09:52:37.104Z,5.17
2022-12-14T09:55:08.065Z,5.57
2022-12-14T09:57:41.410Z,4.97
2022-12-14T10:00:18.793Z,6.28
2022-12-14T10:02:58.400Z,4.40
2022-12-14T10:05:58.490Z,5.17
2022-12-14T10:08:31.626Z,5.50
2022-12-14T10:11:30.958Z,6.47
2022-12-14T10:14:15.647Z,6.20
2022-12-14T10:17:09.756Z,5.85
2022-12-14T10:19:54.925Z,6.53
2022-12-14T10:22:29.085Z,5.20
2022-12-14T10:25:05.934Z,4.88
2022-12-14T10:27:53.943Z,5.47
2022-12-14T10:30:23.252Z,5.30
2022-12-14T10:32:59.354Z,5.50
2022-12-14T10:36:08.061Z,5.22
2022-12-14T10:38:45.240Z,5.00
2022-12-14T10:41:30.837Z,5.53
2022-12-14T10:44:03.158Z,5.45
2022-12-14T10:46:59.250Z,4.53
2022-12-14T10:49:34.949Z,5.70
2022-12-14T10:52:23.173Z,5.35
2022-12-14T10:54:54.275Z,6.18
2022-12-14T10:57:26.512Z,5.40
2022-12-14T11:00:07.710Z,5.67
2022-12-14T11:02:39.615Z,5.22
2022-12-14T11:05:51.127Z,5.20
2022-12-14T11:08:41.445Z,6.13
2022-12-14T11:11:21.093Z,5.43
2022-12-14T11:14:15.629Z,5.10
2022-12-14T11:16:42.445Z,5.57
2022-12-14T11:19:17.719Z,5.55
2022-12-14T11:21:44.879Z,5.55
2022-12-14T11:24:27.950Z,6.05
2022-12-14T11:26:59.428Z,5.87
2022-12-14T11:29:31.621Z,4.70
2022-12-14T11:31:59.007Z,5.13
2022-12-14T11:34:37.726Z,4.30
2022-12-14T11:37:19.100Z,4.50
2022-12-14T11:39:50.282Z,6.30
2022-12-14T11:42:19.104Z,5.43
2022-12-14T11:44:47.852Z,4.95
2022-12-14T11:47:22.363Z,5.45
2022-12-14T11:49:55.697Z,5.22
2022-12-14T11:52:25.075Z,5.83
2022-12-14T11:54:54.721Z,6.18
2022-12-14T11:57:30.825Z,5.72
2022-12-14T12:00:04.592Z,5.57
2022-12-14T12:02:41.103Z,5.60
2022-12-14T12:05:20.710Z,5.43
2022-12-14T12:07:49.952Z,5.75
2022-12-14T12:10:21.039Z,6.13
2022-12-14T12:13:02.518Z,6.53
2022-12-14T12:15:41.180Z,7.30
2022-12-14T12:18:38.413Z,5.77
2022-12-14T12:21:21.921Z,6.55
2022-12-14T12:24:07.468Z,5.28
2022-12-14T12:26:42.405Z,6.13
2022-12-14T12:29:28.278Z,6.22
2022-12-14T12:32:06.108Z,6.10
2022-12-14T12:34:44.110Z,5.65
2022-12-14T12:37:26.796Z,6.35
2022-12-14T12:40:00.542Z,6.55
2022-12-14T12:42:40.521Z,5.50
2022-12-14T12:45:09.704Z,5.67
2022-12-14T12:47:52.568Z,6.28
2022-12-14T12:50:33.294Z,6.20
2022-12-14T12:53:22.330Z,6.13
2022-12-14T12:55:55.483Z,6.18
2022-12-14T12:58:35.670Z,6.80
2022-12-14T13:01:19.311Z,5.30
2022-12-14T13:03:51.964Z,4.68
2022-12-14T13:06:34.948Z,4.07
2022-12-14T13:09:31.683Z,3.35
2022-12-14T13:11:59.938Z,4.10
2022-12-14T13:14:41.096Z,3.63
2022-12-14T13:17:26.888Z,3.92
2022-12-14T13:19:56.383Z,3.72
2022-12-14T13:22:28.558Z,3.60
2022-12-14T13:25:02.768Z,3.80
2022-12-14T13:27:49.700Z,4.13
2022-12-14T13:30:38.318Z,2.97
2022-12-14T13:33:35.310Z,3.80
2022-12-14T13:36:36.522Z,4.05
2022-12-14T13:39:24.620Z,3.80
2022-12-14T13:42:03.159Z,4.45
2022-12-14T13:44:48.558Z,5.10
2022-12-14T13:47:19.948Z,4.65
2022-12-14T13:52:49.589Z,3.70
2022-12-14T13:55:38.169Z,4.25
2022-12-14T13:58:15.658Z,3.42
2022-12-14T14:00:45.462Z,3.90
2022-12-14T14:03:37.364Z,4.05
2022-12-14T14:06:23.334Z,4.57
2022-12-14T14:08:52.606Z,4.72
2022-12-14T14:14:26.762Z,3.72
2022-12-14T14:16:58.241Z,3.80
2022-12-14T14:19:27.566Z,3.47
2022-12-14T14:25:25.700Z,3.92
2022-12-14T14:27:54.265Z,4.13
2022-12-14T14:30:37.017Z,4.45
2022-12-14T14:33:47.311Z,3.93
2022-12-14T14:36:26.041Z,4.53
2022-12-14T14:38:55.212Z,4.40
2022-12-14T14:41:25.727Z,4.07
2022-12-14T14:44:03.027Z,5.13
2022-12-14T14:46:46.315Z,4.47
2022-12-14T14:49:24.239Z,4.18
2022-12-14T14:51:50.747Z,3.60
2022-12-14T14:54:56.090Z,5.65
2022-12-14T14:57:34.213Z,4.55
2022-12-14T15:00:02.369Z,4.80
2022-12-14T15:02:39.428Z,5.35
2022-12-14T15:05:41.476Z,6.38
2022-12-14T15:08:03.254Z,5.18
2022-12-14T15:10:36.896Z,8.18
2022-12-14T15:13:14.792Z,11.67
2022-12-14T15:15:46.630Z,17.25
2022-12-14T15:18:16.127Z,13.13
2022-12-14T15:20:53.343Z,12.90
2022-12-14T15:23:21.102Z,11.70
2022-12-14T15:25:56.796Z,9.97
2022-12-14T15:28:24.134Z,7.05
2022-12-14T15:30:50.748Z,7.95
2022-12-14T15:33:25.247Z,4.30
2022-12-14T15:36:11.238Z,4.40
2022-12-14T15:39:16.639Z,4.67
2022-12-14T15:41:43.855Z,4.28
2022-12-14T15:44:21.039Z,3.58
2022-12-14T15:46:55.171Z,4.32
2022-12-14T15:49:23.053Z,4.35
2022-12-14T15:51:51.117Z,5.23
2022-12-14T15:54:26.052Z,5.00
2022-12-14T15:56:58.582Z,4.68
2022-12-14T15:59:36.456Z,5.25
2022-12-14T16:02:32.404Z,3.75
2022-12-14T16:05:02.105Z,4.13
2022-12-14T16:07:41.777Z,3.10
2022-12-14T16:10:32.232Z,4.25
2022-12-14T16:13:30.624Z,4.10
2022-12-14T16:15:59.072Z,4.70
2022-12-14T16:18:26.846Z,4.87
2022-12-14T16:20:59.879Z,5.15
2022-12-14T16:23:36.977Z,4.97
2022-12-14T16:26:14.314Z,5.97
2022-12-14T16:28:41.249Z,6.90
2022-12-14T16:31:18.941Z,7.27
2022-12-14T16:33:46.670Z,6.70
2022-12-14T16:36:25.615Z,6.82
2022-12-14T16:39:04.860Z,6.90
2022-12-14T16:41:44.644Z,6.90
2022-12-14T16:44:23.037Z,7.30
2022-12-14T16:47:04.731Z,6.70
2022-12-14T16:49:39.537Z,6.28
2022-12-14T16:52:27.086Z,6.47
2022-12-14T16:55:06.608Z,6.97
2022-12-14T16:57:36.749Z,7.47
2022-12-14T17:00:07.608Z,6.28
2022-12-14T17:02:45.314Z,6.57
2022-12-14T17:05:19.017Z,6.70
2022-12-14T17:07:46.243Z,7.85
2022-12-14T17:10:21.767Z,6.47
2022-12-14T17:12:49.151Z,7.25
2022-12-14T17:15:17.840Z,7.10
2022-12-14T17:17:46.092Z,6.93
2022-12-14T17:20:22.360Z,6.65
2022-12-14T17:22:49.516Z,8.20
2022-12-14T17:25:17.285Z,7.25
2022-12-14T17:27:43.977Z,8.05
2022-12-14T18:25:16.931Z,5.47
2022-12-14T18:27:44.760Z,9.07
2022-12-14T18:30:14.186Z,7.25
2022-12-14T18:32:40.762Z,6.82
2022-12-14T18:35:15.952Z,15.63
2022-12-14T18:37:42.542Z,11.45
2022-12-14T18:40:13.475Z,5.63
2022-12-14T18:42:40.654Z,6.32
2022-12-14T18:45:15.442Z,6.22
2022-12-14T18:47:42.800Z,5.50
2022-12-14T18:50:10.072Z,6.50
2022-12-14T18:52:36.664Z,6.80
2022-12-14T18:55:03.627Z,7.22
2022-12-14T18:57:30.193Z,6.75
2022-12-14T18:59:56.957Z,6.50
2022-12-14T19:02:23.516Z,6.30
2022-12-14T19:04:54.158Z,5.75
2022-12-14T19:07:20.735Z,6.07
2022-12-14T19:09:47.261Z,7.30
2022-12-14T19:12:13.789Z,6.37
2022-12-14T19:14:41.041Z,5.15
2022-12-14T19:17:08.235Z,6.53
2022-12-14T19:19:41.087Z,6.75
2022-12-14T19:22:11.520Z,5.28
2022-12-14T19:24:40.377Z,4.97
2022-12-14T19:27:07.161Z,6.25
2022-12-14T19:29:37.511Z,5.85
2022-12-14T19:32:05.979Z,4.22
2022-12-14T19:34:32.877Z,6.47
2022-12-14T19:37:01.232Z,5.10
2022-12-14T19:39:29.522Z,5.15
2022-12-14T19:41:56.041Z,5.82
2022-12-14T19:44:22.785Z,6.28
2022-12-14T19:46:49.850Z,4.93
2022-12-14T19:49:17.203Z,5.60
2022-12-14T19:51:44.098Z,6.18
2022-12-14T19:54:11.907Z,6.78
2022-12-14T19:56:38.682Z,7.33
2022-12-14T19:59:05.457Z,7.68
2022-12-14T20:01:41.964Z,6.53
2022-12-14T20:04:11.600Z,7.47
2022-12-14T20:06:59.030Z,7.20
2022-12-14T20:09:25.654Z,6.35
2022-12-14T20:11:52.238Z,7.90
2022-12-14T20:14:19.348Z,7.88
2022-12-14T20:16:46.190Z,7.47
2022-12-14T20:19:13.743Z,8.32
2022-12-14T20:21:42.088Z,8.35
2022-12-14T20:24:10.654Z,8.65
2022-12-14T20:26:37.828Z,7.32
2022-12-14T20:29:06.412Z,8.87
2022-12-14T20:31:36.616Z,7.63
2022-12-14T20:34:06.960Z,8.38
2022-12-14T20:36:37.987Z,7.03
2022-12-14T20:39:06.120Z,8.70
2022-12-14T20:41:33.859Z,8.20
2022-12-14T20:44:02.735Z,8.95
2022-12-14T20:46:35.711Z,6.88
2022-12-14T20:49:06.397Z,6.78
2022-12-14T20:51:35.794Z,9.07
2022-12-14T20:54:04.982Z,8.40
2022-12-14T20:56:38.305Z,8.52
2022-12-14T20:59:06.797Z,8.27
2022-12-14T21:01:39.592Z,7.55
2022-12-14T21:04:08.721Z,8.23
2022-12-14T21:06:40.483Z,8.40
2022-12-14T21:09:11.892Z,7.75
2022-12-14T21:12:01.430Z,7.78
2022-12-14T21:14:35.156Z,7.10
2022-12-14T21:17:06.892Z,8.10
2022-12-14T21:19:38.251Z,8.83
2022-12-14T21:22:11.431Z,8.88
2022-12-14T21:27:28.442Z,7.10
2022-12-14T21:29:55.242Z,7.85
2022-12-14T21:32:22.681Z,8.13
2022-12-14T21:34:49.949Z,7.50
2022-12-14T21:37:16.751Z,6.32
2022-12-14T21:39:51.819Z,7.00
2022-12-14T21:42:20.858Z,7.30
2022-12-14T21:44:49.470Z,5.90
2022-12-14T21:47:25.522Z,6.97
2022-12-14T21:49:52.541Z,7.35
2022-12-14T21:52:23.195Z,7.63
2022-12-14T21:54:50.114Z,6.00
2022-12-14T21:57:37.745Z,6.27
2022-12-14T22:00:07.104Z,7.47
2022-12-14T22:02:34.172Z,7.15
2022-12-14T22:05:01.238Z,6.78
2022-12-14T22:07:33.902Z,7.35
2022-12-14T22:10:02.063Z,7.13
2022-12-14T22:12:28.923Z,6.70
2022-12-14T22:14:55.481Z,6.30
2022-12-14T22:17:23.202Z,5.70
2022-12-14T22:19:51.029Z,5.35
2022-12-14T22:22:18.714Z,4.90
2022-12-14T22:24:48.776Z,5.90
2022-12-14T22:27:16.277Z,5.50
2022-12-14T22:29:43.579Z,5.35
2022-12-14T22:32:11.904Z,5.07
2022-12-14T22:34:39.550Z,6.43
2022-12-14T22:37:17.326Z,5.47
2022-12-14T22:39:49.810Z,5.50
2022-12-14T22:42:16.657Z,6.25
2022-12-14T22:44:44.725Z,6.32
2022-12-14T22:47:14.541Z,5.57
2022-12-14T22:49:41.031Z,5.65
